Time;durP1;ratioP1;P1;durP2;ratioP2;P2;SDS_P1;SDS_P2;PMS_P1;PMS_P2;Temp;Humidity;BMP_temperature;BMP_pressure;BME280_temperature;BME280_humidity;BME280_pressure;Samples;Min_cycle;Max_cycle;Signal;HPM_P1;HPM_P2
2022/02/14 00:01:17;;;;;;;24.58;8.93;;;;;;;3.15;80.15;97846.59;5043221;28;20159;-58
2022/02/14 00:03:43;;;;;;;49.40;13.25;;;;;;;3.47;79.87;97895.81;5043558;28;20060;-57
2022/02/14 00:06:10;;;;;;;46.80;12.82;;;;;;;3.46;80.51;97891.47;5043593;28;20057;-58
2022/02/14 00:08:37;;;;;;;38.25;12.77;;;;;;;3.47;80.27;97895.81;5043888;28;20052;-57
2022/02/14 00:11:03;;;;;;;43.15;14.15;;;;;;;3.34;80.74;97885.66;5042882;28;20057;-57
2022/02/14 00:13:30;;;;;;;49.97;14.85;;;;;;;3.33;81.00;97889.50;5043575;28;20510;-57
2022/02/14 00:15:57;;;;;;;47.50;17.48;;;;;;;3.44;80.58;97899.16;5043508;28;20402;-56
2022/02/14 00:18:24;;;;;;;52.90;18.02;;;;;;;3.52;79.85;97879.28;5043047;28;20053;-58
2022/02/14 00:20:50;;;;;;;51.63;18.92;;;;;;;3.61;78.96;97882.09;5043001;28;20037;-58
2022/02/14 00:23:17;;;;;;;49.35;18.77;;;;;;;3.64;79.10;97882.31;5042816;28;20053;-56
2022/02/14 00:25:44;;;;;;;32.67;14.18;;;;;;;3.50;78.88;97876.03;5041860;28;20064;-57
2022/02/14 00:28:11;;;;;;;31.13;11.95;;;;;;;3.55;79.27;97878.66;5043169;28;20087;-56
2022/02/14 00:30:37;;;;;;;22.58;10.05;;;;;;;3.56;78.81;97874.81;5042886;28;20048;-57
2022/02/14 00:33:04;;;;;;;48.17;16.50;;;;;;;3.60;79.31;97872.28;5041575;28;20057;-58
2022/02/14 00:35:31;;;;;;;28.58;12.73;;;;;;;3.54;79.13;97881.72;5043021;28;20541;-56
2022/02/14 00:37:57;;;;;;;30.52;10.73;;;;;;;3.55;78.49;97889.63;5042030;28;20051;-58
2022/02/14 00:40:24;;;;;;;18.88;7.88;;;;;;;3.56;78.26;97877.53;5043195;28;20901;-56
2022/02/14 00:42:51;;;;;;;26.60;8.32;;;;;;;3.56;78.81;97880.28;5043509;28;20132;-57
2022/02/14 00:45:19;;;;;;;20.10;8.38;;;;;;;3.61;78.61;97879.34;5043023;28;20155;-57
2022/02/14 00:47:46;;;;;;;14.82;6.40;;;;;;;3.60;78.25;97883.22;5043337;28;20439;-56
2022/02/14 00:50:13;;;;;;;17.98;6.20;;;;;;;3.19;78.15;97836.69;5043293;28;20055;-57
2022/02/14 00:52:40;;;;;;;20.55;6.85;;;;;;;3.29;77.76;97817.31;5041306;28;20061;-58
2022/02/14 00:55:12;;;;;;;24.35;9.60;;;;;;;3.63;78.62;97871.66;5045993;28;20048;-57
2022/02/14 00:57:39;;;;;;;26.10;8.15;;;;;;;3.69;78.31;97873.16;5047206;28;20045;-56
2022/02/14 01:00:09;;;;;;;45.67;13.68;;;;;;;3.66;78.64;97855.44;5047029;28;20059;-56
2022/02/14 01:02:37;;;;;;;43.03;14.75;;;;;;;3.75;78.26;97856.31;5045467;28;20135;-56
2022/02/14 01:05:04;;;;;;;34.70;11.45;;;;;;;3.58;78.48;97836.97;5046534;28;20057;-57
2022/02/14 01:07:31;;;;;;;34.42;13.02;;;;;;;3.61;78.32;97860.19;5046928;28;20079;-56
2022/02/14 01:10:00;;;;;;;41.15;14.82;;;;;;;3.67;78.60;97848.81;5046430;28;20051;-57
2022/02/14 01:12:27;;;;;;;24.45;10.07;;;;;;;3.55;78.92;97848.53;5046594;28;20063;-56
2022/02/14 01:14:54;;;;;;;25.00;9.45;;;;;;;3.57;79.17;97849.06;5046390;28;20072;-58
2022/02/14 01:17:22;;;;;;;30.88;11.70;;;;;;;3.30;78.99;97791.56;5046848;28;20045;-58
2022/02/14 01:19:48;;;;;;;18.85;7.47;;;;;;;2.66;78.44;97674.13;5046496;28;20053;-58
2022/02/14 01:22:15;;;;;;;14.18;6.07;;;;;;;3.69;78.69;97841.13;5046758;28;20045;-57
2022/02/14 01:24:42;;;;;;;19.92;7.40;;;;;;;3.71;78.44;97833.41;5044950;28;20059;-56
2022/02/14 01:27:09;;;;;;;80.60;25.25;;;;;;;3.73;78.30;97835.84;5044900;28;20140;-59
2022/02/14 01:29:35;;;;;;;57.03;19.42;;;;;;;3.65;78.23;97834.59;5046461;28;20048;-56
2022/02/14 01:32:02;;;;;;;32.55;12.05;;;;;;;3.66;78.46;97836.25;5046722;28;20080;-57
2022/02/14 01:34:29;;;;;;;22.83;9.32;;;;;;;3.64;79.29;97854.09;5046062;28;20056;-59
2022/02/14 01:36:56;;;;;;;22.42;9.20;;;;;;;3.57;78.92;97816.19;5046605;28;20512;-57
2022/02/14 01:39:22;;;;;;;14.68;5.93;;;;;;;3.62;78.27;97827.00;5045968;28;20052;-56
2022/02/14 01:41:49;;;;;;;16.60;5.72;;;;;;;3.48;79.14;97812.53;5044994;28;20522;-56
2022/02/14 01:44:39;;;;;;;15.23;5.22;;;;;;;3.39;79.65;97824.50;5046288;28;20053;-56
2022/02/14 01:47:18;;;;;;;14.45;5.78;;;;;;;3.43;79.90;97820.84;5046185;28;20056;-56
2022/02/14 01:49:46;;;;;;;15.35;6.18;;;;;;;3.44;79.71;97814.25;5044680;28;20986;-57
2022/02/14 01:52:13;;;;;;;14.75;5.63;;;;;;;3.35;78.98;97813.34;5044137;28;20229;-57
2022/02/14 01:54:42;;;;;;;12.70;4.25;;;;;;;3.08;79.30;97753.16;5044532;28;20191;-56
2022/02/14 01:57:11;;;;;;;13.73;4.38;;;;;;;3.36;79.71;97814.16;5046061;28;20079;-58
2022/02/14 01:59:39;;;;;;;75.38;23.33;;;;;;;3.38;79.78;97812.75;5045745;28;20049;-57
2022/02/14 02:02:07;;;;;;;21.85;7.65;;;;;;;3.34;80.00;97800.78;5044592;28;20053;-56
2022/02/14 02:04:34;;;;;;;12.50;4.22;;;;;;;3.38;79.81;97807.28;5045694;28;20056;-56
2022/02/14 02:07:04;;;;;;;14.13;4.30;;;;;;;2.87;79.82;97719.09;5044643;28;20567;-58
2022/02/14 02:09:31;;;;;;;11.25;4.55;;;;;;;3.36;79.85;97798.56;5045317;28;20056;-58
2022/02/14 02:14:43;;;;;;;12.23;4.00;;;;;;;3.45;79.73;97799.44;5045570;28;20053;-58
2022/02/14 02:17:10;;;;;;;14.98;5.68;;;;;;;3.37;79.97;97778.25;5045660;28;20075;-57
2022/02/14 02:19:37;;;;;;;23.17;7.05;;;;;;;3.54;79.97;97794.84;5045589;28;21229;-56
2022/02/14 02:22:04;;;;;;;35.28;10.02;;;;;;;3.68;79.58;97789.38;5045295;28;20053;-57
2022/02/14 02:24:35;;;;;;;32.05;10.07;;;;;;;3.61;79.55;97773.34;5043667;28;20053;-58
2022/02/14 02:27:05;;;;;;;38.50;12.27;;;;;;;3.72;79.44;97780.22;5043718;28;20056;-57
2022/02/14 02:29:37;;;;;;;26.85;10.77;;;;;;;3.71;79.52;97777.78;5045317;28;20053;-59
2022/02/14 02:32:06;;;;;;;19.27;7.27;;;;;;;3.69;79.18;97783.59;5044839;28;20064;-58
2022/02/14 02:34:36;;;;;;;17.02;6.95;;;;;;;3.05;80.02;97705.31;5044973;28;20670;-57
2022/02/14 02:37:03;;;;;;;14.95;5.13;;;;;;;3.60;79.87;97777.22;5045408;28;20527;-56
2022/02/14 02:39:29;;;;;;;20.17;6.38;;;;;;;3.61;78.81;97778.84;5044891;28;20053;-58
2022/02/14 02:41:58;;;;;;;23.88;7.07;;;;;;;3.38;78.89;97747.03;5045027;28;20057;-57
2022/02/14 02:44:25;;;;;;;19.75;6.85;;;;;;;3.40;79.56;97766.69;5044936;28;20065;-59
2022/02/14 02:46:52;;;;;;;20.10;7.25;;;;;;;3.45;79.84;97772.06;5043464;28;20048;-57
2022/02/14 02:49:21;;;;;;;19.60;6.63;;;;;;;3.42;80.14;97769.94;5044750;28;20052;-57
2022/02/14 02:51:51;;;;;;;14.60;5.95;;;;;;;3.45;80.04;97769.31;5044821;28;20064;-58
2022/02/14 02:54:20;;;;;;;13.30;5.15;;;;;;;3.33;80.43;97763.56;5045131;28;20056;-58
2022/02/14 02:56:48;;;;;;;10.88;4.15;;;;;;;3.21;79.75;97741.34;5044864;28;20053;-57
2022/02/14 02:59:16;;;;;;;10.77;4.10;;;;;;;3.35;80.10;97771.47;5044917;28;20059;-57
2022/02/14 03:01:44;;;;;;;11.43;4.20;;;;;;;3.24;80.43;97779.06;5044510;28;20049;-57
2022/02/14 03:04:13;;;;;;;11.05;4.75;;;;;;;3.24;81.19;97757.16;5044779;28;20052;-56
2022/02/14 03:06:41;;;;;;;9.02;4.20;;;;;;;3.26;80.02;97765.91;5043294;28;20056;-57
2022/02/14 03:09:09;;;;;;;10.98;4.22;;;;;;;3.40;79.62;97772.16;5044459;28;20055;-58
2022/02/14 03:11:37;;;;;;;13.82;4.15;;;;;;;3.32;80.51;97769.34;5044630;28;20107;-57
2022/02/14 03:14:04;;;;;;;10.95;4.43;;;;;;;2.75;79.86;97666.84;5044419;28;20045;-57
2022/02/14 03:16:31;;;;;;;9.93;3.78;;;;;;;3.31;80.38;97767.72;5044346;28;20056;-59
2022/02/14 03:18:58;;;;;;;13.15;5.60;;;;;;;2.82;80.96;97705.53;5044350;28;20083;-59
2022/02/14 03:21:25;;;;;;;12.80;5.32;;;;;;;3.25;80.79;97758.81;5044276;28;20519;-56
2022/02/14 03:23:53;;;;;;;15.23;6.10;;;;;;;3.47;80.86;97769.84;5043936;28;20049;-58
2022/02/14 03:26:21;;;;;;;23.38;7.97;;;;;;;3.45;80.32;97758.38;5044118;28;20077;-59
2022/02/14 03:28:49;;;;;;;19.30;8.57;;;;;;;3.52;80.22;97769.72;5044033;28;20620;-55
2022/02/14 03:31:17;;;;;;;21.90;7.93;;;;;;;3.37;80.47;97733.66;5044267;28;20048;-58
2022/02/14 03:33:44;;;;;;;28.10;7.93;;;;;;;3.15;80.60;97708.97;5044251;28;20523;-57
2022/02/14 03:36:13;;;;;;;34.38;10.88;;;;;;;3.30;80.31;97706.69;5043958;28;20057;-56
2022/02/14 03:38:42;;;;;;;39.60;12.40;;;;;;;3.53;79.51;97738.47;5042305;28;20057;-58
2022/02/14 03:41:09;;;;;;;40.78;13.40;;;;;;;3.60;79.89;97758.06;5043807;28;20060;-57
2022/02/14 03:43:36;;;;;;;38.28;13.27;;;;;;;3.64;80.09;97756.31;5043776;28;20049;-57
2022/02/14 03:46:04;;;;;;;41.42;13.70;;;;;;;3.57;79.83;97744.16;5043716;28;20525;-57
2022/02/14 03:48:30;;;;;;;44.72;14.07;;;;;;;3.22;79.83;97688.25;5043672;28;20067;-56
2022/02/14 03:50:57;;;;;;;41.67;14.63;;;;;;;3.62;80.11;97753.06;5042630;28;20049;-56
2022/02/14 03:53:24;;;;;;;46.25;14.50;;;;;;;3.59;79.89;97753.66;5042532;28;20063;-57
2022/02/14 03:55:51;;;;;;;46.40;15.85;;;;;;;3.23;79.93;97711.75;5043537;28;20152;-58
2022/02/14 03:58:18;;;;;;;30.27;10.40;;;;;;;3.46;80.42;97749.06;5043450;28;20507;-58
2022/02/14 04:00:45;;;;;;;26.27;10.23;;;;;;;3.21;81.23;97735.88;5043591;28;20048;-56
2022/02/14 04:03:12;;;;;;;27.45;8.90;;;;;;;3.17;81.38;97734.91;5044029;28;20431;-57
2022/02/14 04:05:39;;;;;;;21.73;9.30;;;;;;;3.32;80.81;97744.72;5043417;28;20060;-57
2022/02/14 04:08:07;;;;;;;12.88;5.93;;;;;;;3.21;80.29;97746.84;5043352;28;20569;-58
2022/02/14 04:10:34;;;;;;;13.95;5.80;;;;;;;2.78;81.50;97721.72;5043638;28;20060;-56
2022/02/14 04:13:00;;;;;;;11.50;5.10;;;;;;;2.85;82.41;97745.94;5043385;28;20045;-57
2022/02/14 04:15:27;;;;;;;14.88;5.22;;;;;;;2.75;82.10;97743.44;5043741;28;20443;-58
2022/02/14 04:17:54;;;;;;;17.88;5.55;;;;;;;2.67;82.44;97744.91;5043763;28;20148;-56
2022/02/14 04:20:21;;;;;;;18.08;6.63;;;;;;;2.55;82.74;97739.13;5042979;28;20059;-56
2022/02/14 04:22:48;;;;;;;20.42;7.88;;;;;;;2.07;83.80;97694.09;5043197;28;20048;-57
2022/02/14 04:25:16;;;;;;;24.38;8.10;;;;;;;2.32;84.05;97747.50;5043445;28;20059;-56
2022/02/14 04:27:43;;;;;;;18.30;10.00;;;;;;;2.25;84.91;97744.34;5043283;28;20049;-56
2022/02/14 04:30:12;;;;;;;26.13;11.32;;;;;;;2.25;85.07;97749.81;5046653;28;20048;-58
2022/02/14 04:32:40;;;;;;;34.30;12.57;;;;;;;2.16;85.64;97743.41;5047757;28;20064;-56
2022/02/14 04:35:08;;;;;;;34.38;13.38;;;;;;;2.12;86.38;97754.13;5047211;28;20549;-57
2022/02/14 04:37:35;;;;;;;28.52;11.25;;;;;;;1.78;85.55;97695.41;5047702;28;20049;-57
2022/02/14 04:40:04;;;;;;;22.02;8.90;;;;;;;1.98;86.29;97738.78;5047471;28;20057;-56
2022/02/14 04:42:32;;;;;;;17.45;8.30;;;;;;;1.32;86.30;97649.75;5048366;28;20134;-57
2022/02/14 04:44:59;;;;;;;23.92;11.43;;;;;;;1.83;87.08;97747.22;5047286;28;20060;-56
2022/02/14 04:47:26;;;;;;;40.45;16.10;;;;;;;1.86;86.32;97752.09;5047531;28;20436;-58
2022/02/14 04:49:52;;;;;;;22.98;10.38;;;;;;;1.75;87.69;97745.16;5047153;28;20053;-57
2022/02/14 04:52:19;;;;;;;30.85;11.82;;;;;;;1.72;87.49;97745.75;5046808;28;20055;-56
2022/02/14 04:54:46;;;;;;;18.20;8.70;;;;;;;1.48;88.62;97730.28;5046484;28;20083;-58
2022/02/14 04:57:12;;;;;;;18.48;8.25;;;;;;;1.60;87.75;97748.16;5047202;28;20053;-56
2022/02/14 04:59:39;;;;;;;19.42;6.82;;;;;;;1.44;89.14;97751.06;5046949;28;20057;-59
2022/02/14 05:02:06;;;;;;;26.13;8.48;;;;;;;1.51;88.65;97756.19;5047275;28;20152;-56
2022/02/14 05:04:32;;;;;;;23.73;8.98;;;;;;;1.13;90.14;97733.50;5047039;28;20071;-58
2022/02/14 05:06:59;;;;;;;28.90;11.00;;;;;;;1.24;90.19;97751.38;5047064;28;20491;-57
2022/02/14 05:09:26;;;;;;;23.88;11.27;;;;;;;1.31;89.64;97754.53;5046451;28;20069;-58
2022/02/14 05:11:53;;;;;;;29.35;12.90;;;;;;;1.32;89.55;97747.97;5046654;28;20045;-56
2022/02/14 05:14:20;;;;;;;36.67;14.63;;;;;;;1.28;90.42;97752.38;5046252;28;20522;-58
2022/02/14 05:16:47;;;;;;;27.10;11.68;;;;;;;1.28;90.55;97757.84;5045221;28;20063;-57
2022/02/14 05:19:13;;;;;;;26.65;11.75;;;;;;;1.27;89.97;97764.41;5046697;28;20045;-56
2022/02/14 05:21:40;;;;;;;42.30;13.32;;;;;;;1.23;89.54;97766.09;5047005;28;20052;-58
2022/02/14 05:24:07;;;;;;;35.42;14.43;;;;;;;1.24;89.20;97762.28;5046475;28;20072;-57
2022/02/14 05:26:33;;;;;;;41.17;14.27;;;;;;;0.54;89.68;97651.38;5046509;28;20055;-58
2022/02/14 05:29:00;;;;;;;33.10;13.27;;;;;;;1.24;89.71;97773.19;5046702;28;20491;-56
2022/02/14 05:31:27;;;;;;;33.25;11.82;;;;;;;0.41;90.13;97682.03;5046505;28;20057;-59
2022/02/14 05:33:54;;;;;;;25.58;11.32;;;;;;;1.13;90.78;97773.59;5044704;28;20048;-58
2022/02/14 05:36:21;;;;;;;43.38;17.73;;;;;;;1.14;90.23;97773.31;5046370;28;20056;-58
2022/02/14 05:38:48;;;;;;;47.85;20.00;;;;;;;1.24;89.89;97770.47;5046365;28;20067;-56
2022/02/14 05:41:15;;;;;;;60.33;21.73;;;;;;;1.32;90.37;97775.28;5044617;28;20060;-57
2022/02/14 05:43:42;;;;;;;63.75;18.88;;;;;;;1.17;88.23;97729.06;5045877;28;20145;-57
2022/02/14 05:46:13;;;;;;;45.00;16.02;;;;;;;1.01;88.55;97714.00;5045963;28;20079;-56
2022/02/14 05:48:45;;;;;;;34.58;13.75;;;;;;;1.42;88.96;97786.03;5044323;28;20053;-57
2022/02/14 05:51:13;;;;;;;25.92;10.90;;;;;;;1.43;87.86;97771.31;5046441;28;20053;-58
2022/02/14 05:53:41;;;;;;;25.08;11.60;;;;;;;1.31;87.15;97781.81;5045926;28;20065;-58
2022/02/14 05:56:08;;;;;;;25.92;12.48;;;;;;;1.42;88.16;97777.84;5046065;28;20052;-56
2022/02/14 05:58:41;;;;;;;21.57;10.37;;;;;;;1.49;86.82;97781.03;5039782;28;20061;-58
2022/02/14 06:01:08;;;;;;;21.50;9.93;;;;;;;1.64;86.48;97787.38;5026039;28;20299;-56
2022/02/14 06:03:35;;;;;;;21.83;8.85;;;;;;;1.00;85.77;97667.94;5025552;28;20061;-56
2022/02/14 06:06:02;;;;;;;26.23;8.55;;;;;;;1.92;84.51;97800.06;5025436;28;20049;-55
2022/02/14 06:08:29;;;;;;;20.52;9.55;;;;;;;2.00;84.01;97775.63;5025733;28;20421;-56
2022/02/14 06:10:56;;;;;;;19.42;8.73;;;;;;;2.05;83.71;97766.53;5025392;28;20614;-58
2022/02/14 06:13:22;;;;;;;22.13;9.95;;;;;;;2.30;82.82;97791.53;5025479;28;20072;-55
2022/02/14 06:15:49;;;;;;;25.73;10.40;;;;;;;2.46;82.53;97779.22;5025935;28;20060;-57
2022/02/14 06:18:16;;;;;;;31.58;11.70;;;;;;;2.68;82.32;97770.34;5026041;28;20065;-56
2022/02/14 06:20:43;;;;;;;24.60;9.93;;;;;;;2.91;81.56;97774.81;5025116;28;20523;-55
2022/02/14 06:23:09;;;;;;;21.67;9.75;;;;;;;2.81;80.09;97725.78;5025736;28;20049;-56
2022/02/14 06:25:37;;;;;;;26.85;9.38;;;;;;;3.21;79.50;97773.41;5025234;28;20062;-56
2022/02/14 06:28:05;;;;;;;21.88;9.40;;;;;;;3.02;77.67;97737.94;5025248;28;20045;-55
2022/02/14 06:30:32;;;;;;;19.13;6.28;;;;;;;3.39;77.47;97765.06;5025095;28;20080;-57
2022/02/14 06:32:59;;;;;;;29.67;9.68;;;;;;;3.85;76.81;97779.38;5025027;28;20045;-57
2022/02/14 06:35:26;;;;;;;24.45;8.43;;;;;;;3.74;75.96;97782.66;5025154;28;20053;-57
2022/02/14 06:37:53;;;;;;;28.55;10.55;;;;;;;3.56;76.53;97737.84;5030384;28;20048;-58
2022/02/14 06:40:20;;;;;;;22.35;7.57;;;;;;;3.99;75.18;97780.16;5044691;28;20518;-56
2022/02/14 06:42:48;;;;;;;25.50;10.50;;;;;;;3.43;74.60;97675.72;5045025;28;20057;-57
2022/02/14 06:45:16;;;;;;;29.73;13.13;;;;;;;4.22;74.75;97778.25;5040693;28;20060;-58
2022/02/14 06:47:43;;;;;;;36.83;14.70;;;;;;;4.17;74.41;97759.16;5044120;28;20140;-61
2022/02/14 06:50:11;;;;;;;26.08;14.77;;;;;;;4.40;73.37;97775.28;5043792;28;20057;-62
2022/02/14 06:52:38;;;;;;;32.35;15.77;;;;;;;4.51;72.80;97782.16;5042373;28;20072;-61
2022/02/14 06:55:08;;;;;;;26.15;12.70;;;;;;;4.52;73.31;97764.56;5047566;28;20435;-60
2022/02/14 06:57:37;;;;;;;31.33;14.13;;;;;;;4.71;72.84;97774.50;5042807;28;20107;-61
2022/02/14 07:00:10;;;;;;;26.20;12.30;;;;;;;4.72;72.68;97770.63;5039272;28;20200;-58
2022/02/14 07:02:37;;;;;;;22.52;11.30;;;;;;;4.79;72.40;97749.06;5041990;28;20091;-59
2022/02/14 07:05:05;;;;;;;16.42;8.57;;;;;;;5.01;71.90;97776.44;5041912;28;20130;-60
2022/02/14 07:07:32;;;;;;;20.67;8.57;;;;;;;5.17;72.27;97761.16;5041916;28;20049;-58
2022/02/14 07:09:58;;;;;;;19.50;7.30;;;;;;;5.23;72.15;97759.88;5042505;28;20053;-58
2022/02/14 07:12:26;;;;;;;10.75;5.20;;;;;;;5.28;71.35;97740.53;5042118;28;20049;-58
2022/02/14 07:14:53;;;;;;;14.80;4.72;;;;;;;4.89;70.81;97649.94;5042073;28;20527;-57
2022/02/14 07:17:20;;;;;;;13.65;6.60;;;;;;;2.55;71.04;97339.13;5043839;28;20048;-59
2022/02/14 07:19:47;;;;;;;14.98;5.82;;;;;;;5.22;71.78;97767.31;5042183;28;20052;-59
2022/02/14 07:22:14;;;;;;;15.18;6.32;;;;;;;5.53;70.62;97753.50;5033680;28;20088;-57
2022/02/14 07:24:43;;;;;;;11.32;5.30;;;;;;;5.64;70.10;97760.31;5042836;28;20201;-59
2022/02/14 07:27:09;;;;;;;14.18;5.28;;;;;;;4.46;74.21;97763.06;5052966;28;20369;-56
2022/02/14 07:29:36;;;;;;;12.80;5.90;;;;;;;4.06;74.66;97711.97;5042146;28;20063;-58
2022/02/14 07:32:03;;;;;;;26.38;8.88;;;;;;;4.04;77.11;97766.31;5043274;28;20045;-59
2022/02/14 07:34:30;;;;;;;12.82;5.35;;;;;;;3.39;76.08;97666.50;5043086;28;20048;-58
2022/02/14 07:37:00;;;;;;;15.75;7.03;;;;;;;4.29;76.07;97741.03;5042522;28;20044;-58
2022/02/14 07:39:27;;;;;;;17.13;7.03;;;;;;;4.63;75.65;97754.94;5042441;28;20049;-60
2022/02/14 07:41:54;;;;;;;18.15;6.97;;;;;;;4.73;73.80;97761.28;5042529;28;20503;-60
2022/02/14 07:44:20;;;;;;;15.18;5.30;;;;;;;3.82;72.71;97599.16;5042239;28;20057;-60
2022/02/14 07:46:51;;;;;;;12.52;5.25;;;;;;;4.45;74.64;97745.00;5042432;28;20060;-59
2022/02/14 07:49:18;;;;;;;35.35;7.88;;;;;;;4.65;75.08;97749.94;5042100;28;20367;-60
2022/02/14 07:51:45;;;;;;;17.00;4.22;;;;;;;4.18;73.44;97706.75;5041790;28;20467;-59
2022/02/14 07:54:12;;;;;;;8.80;3.63;;;;;;;4.41;72.65;97754.97;5041927;28;20059;-61
2022/02/14 07:56:39;;;;;;;6.60;2.97;;;;;;;3.90;70.69;97612.13;5057276;28;20052;-62
2022/02/14 07:59:07;;;;;;;9.10;3.47;;;;;;;5.21;69.48;97751.97;5038065;28;20053;-58
2022/02/14 08:01:34;;;;;;;20.08;4.90;;;;;;;5.20;69.99;97746.78;5041782;28;20488;-59
2022/02/14 08:04:01;;;;;;;9.25;4.18;;;;;;;5.27;69.16;97744.38;5039311;28;20049;-62
2022/02/14 08:06:30;;;;;;;13.48;5.30;;;;;;;5.00;67.62;97697.94;5041286;28;20472;-62
2022/02/14 08:08:56;;;;;;;16.92;5.90;;;;;;;5.62;67.75;97718.59;5040421;28;20532;-58
2022/02/14 08:11:23;;;;;;;10.52;5.72;;;;;;;5.93;65.82;97742.09;5041356;28;20049;-60
2022/02/14 08:13:50;;;;;;;11.70;5.88;;;;;;;6.07;66.44;97739.16;5041540;28;20063;-60
2022/02/14 08:16:17;;;;;;;9.27;3.10;;;;;;;5.96;62.64;97707.63;5041515;28;20083;-61
2022/02/14 08:18:43;;;;;;;7.80;3.67;;;;;;;6.18;62.81;97729.44;5056851;28;20063;-60
2022/02/14 08:21:10;;;;;;;9.05;5.05;;;;;;;6.16;64.25;97712.47;5041166;28;20047;-60
2022/02/14 08:23:37;;;;;;;11.20;4.13;;;;;;;6.39;62.42;97726.81;5041486;28;20044;-61
2022/02/14 08:26:03;;;;;;;5.82;3.35;;;;;;;6.54;61.41;97727.13;5040312;28;20045;-57
2022/02/14 08:28:30;;;;;;;14.13;8.60;;;;;;;6.67;59.76;97723.34;5048123;28;20060;-59
2022/02/14 08:30:57;;;;;;;7.53;3.85;;;;;;;6.34;60.78;97713.25;5048438;28;20535;-62
2022/02/14 08:33:23;;;;;;;11.20;4.18;;;;;;;6.81;60.87;97712.16;5054531;28;20041;-57
2022/02/14 08:35:52;;;;;;;12.98;4.70;;;;;;;6.91;60.69;97671.28;5042902;28;21563;-61
2022/02/14 08:38:19;;;;;;;14.35;4.53;;;;;;;7.60;59.27;97713.03;5040635;28;20052;-59
2022/02/14 08:40:46;;;;;;;8.27;3.85;;;;;;;7.42;58.55;97656.41;5043455;28;20052;-59
2022/02/14 08:43:13;;;;;;;11.38;5.43;;;;;;;6.78;57.47;97509.09;5044652;28;20049;-62
2022/02/14 08:46:00;;;;;;;14.70;6.05;;;;;;;8.25;56.64;97695.81;5031792;28;20527;-57
2022/02/14 08:48:30;;;;;;;10.73;5.07;;;;;;;8.02;57.35;97702.81;5044688;28;20081;-60
2022/02/14 08:50:57;;;;;;;21.95;8.98;;;;;;;8.33;56.52;97700.44;5041090;28;20057;-59
2022/02/14 08:53:24;;;;;;;73.82;27.13;;;;;;;8.36;57.09;97713.56;5047393;28;20052;-57
2022/02/14 08:55:51;;;;;;;18.58;7.40;;;;;;;8.61;55.23;97699.50;5041934;28;20107;-59
2022/02/14 08:58:22;;;;;;;11.02;4.93;;;;;;;6.67;57.73;97604.19;5039549;28;20053;-62
2022/02/14 09:00:50;;;;;;;13.05;4.78;;;;;;;7.94;56.03;97701.72;5040215;28;20107;-60
2022/02/14 09:03:17;;;;;;;12.43;4.43;;;;;;;7.92;54.97;97667.38;5041146;28;20053;-58
2022/02/14 09:05:44;;;;;;;11.20;4.85;;;;;;;8.55;55.11;97711.09;5048568;28;20083;-57
2022/02/14 09:08:10;;;;;;;8.73;4.60;;;;;;;8.77;53.47;97667.28;5040978;28;20055;-61
2022/02/14 09:10:37;;;;;;;9.48;4.55;;;;;;;9.31;53.39;97717.66;5040543;28;20053;-60
2022/02/14 09:13:04;;;;;;;9.55;5.07;;;;;;;9.35;52.29;97707.53;5059018;28;20049;-59
2022/02/14 09:15:35;;;;;;;7.10;4.13;;;;;;;8.88;52.14;97646.34;5043817;28;20048;-57
2022/02/14 09:18:01;;;;;;;7.35;3.53;;;;;;;9.10;52.31;97700.38;5044433;28;20044;-58
2022/02/14 09:20:28;;;;;;;8.55;4.15;;;;;;;9.22;51.44;97678.25;5046075;28;20041;-59
2022/02/14 09:22:55;;;;;;;8.18;4.05;;;;;;;9.27;51.19;97644.88;5047547;28;20048;-62
2022/02/14 09:25:22;;;;;;;10.95;3.60;;;;;;;9.21;51.92;97696.00;5046839;28;21127;-59
2022/02/14 09:27:49;;;;;;;10.75;4.00;;;;;;;9.62;51.44;97706.81;5044655;28;20064;-58
2022/02/14 09:30:17;;;;;;;9.57;3.50;;;;;;;9.72;50.70;97705.53;5048081;28;20057;-58
2022/02/14 09:32:44;;;;;;;7.38;4.07;;;;;;;9.68;52.00;97699.88;5048934;28;20059;-61
2022/02/14 09:35:11;;;;;;;10.10;4.40;;;;;;;9.79;52.04;97689.13;5042263;28;20057;-57
2022/02/14 09:37:38;;;;;;;7.97;4.20;;;;;;;10.05;50.41;97632.19;5044669;28;20051;-58
2022/02/14 09:40:06;;;;;;;5.85;3.28;;;;;;;10.64;48.98;97694.03;5058220;28;20095;-58
2022/02/14 09:42:55;;;;;;;10.98;4.82;;;;;;;10.48;49.26;97690.41;5044512;28;20049;-58
2022/02/14 09:45:23;;;;;;;9.07;3.88;;;;;;;10.11;49.58;97697.28;5044182;28;20053;-57
2022/02/14 09:47:55;;;;;;;8.25;4.20;;;;;;;8.91;52.79;97702.88;5043000;28;20064;-60
2022/02/14 09:50:23;;;;;;;8.83;4.33;;;;;;;8.94;52.64;97691.16;5042556;28;20049;-58
2022/02/14 09:52:50;;;;;;;13.90;6.30;;;;;;;9.39;51.08;97691.84;5043900;28;20053;-56
2022/02/14 09:55:18;;;;;;;11.40;4.55;;;;;;;9.22;50.96;97697.59;5044137;28;20091;-60
2022/02/14 09:57:45;;;;;;;11.48;5.25;;;;;;;9.25;51.75;97652.69;5040569;28;20080;-57
2022/02/14 10:00:13;;;;;;;8.18;4.60;;;;;;;9.88;50.45;97675.97;5043922;28;20056;-56
2022/02/14 10:02:39;;;;;;;11.77;5.55;;;;;;;9.88;50.25;97675.97;5044153;28;20068;-56
2022/02/14 10:05:06;;;;;;;15.55;6.68;;;;;;;9.88;50.35;97679.53;5044398;28;20146;-58
2022/02/14 10:07:44;;;;;;;9.65;4.13;;;;;;;9.22;50.41;97620.22;5039520;28;20052;-61
2022/02/14 10:10:19;;;;;;;9.50;5.00;;;;;;;8.81;51.83;97609.41;5048537;28;20053;-58
2022/02/14 10:12:49;;;;;;;10.25;5.15;;;;;;;8.53;51.23;97525.66;5039511;28;20056;-60
2022/02/14 10:15:17;;;;;;;8.77;4.53;;;;;;;9.65;50.90;97661.84;5044284;28;20427;-59
2022/02/14 10:17:46;;;;;;;8.15;5.00;;;;;;;9.58;50.97;97667.16;5043837;28;20055;-57
2022/02/14 10:20:26;;;;;;;9.60;4.05;;;;;;;9.88;50.60;97732.13;5044631;28;20071;-59
2022/02/14 10:23:09;;;;;;;10.18;4.60;;;;;;;9.75;49.94;97594.16;5041370;28;20056;-59
2022/02/14 10:25:38;;;;;;;8.25;4.20;;;;;;;10.15;48.86;97653.88;5043501;28;20435;-62
2022/02/14 10:28:15;;;;;;;9.52;4.07;;;;;;;10.16;49.16;97638.88;5043148;28;20041;-58
2022/02/14 10:31:05;;;;;;;8.70;5.07;;;;;;;9.42;50.12;97627.53;5041422;28;20068;-61
2022/02/14 10:33:48;;;;;;;8.27;4.65;;;;;;;9.54;50.45;97644.13;5044545;28;20056;-57
2022/02/14 10:36:31;;;;;;;11.38;5.60;;;;;;;9.56;50.20;97628.00;5059511;28;20045;-62
2022/02/14 10:39:10;;;;;;;8.60;4.75;;;;;;;9.61;50.84;97627.72;5042448;28;20063;-58
2022/02/14 10:41:42;;;;;;;12.05;4.70;;;;;;;8.78;51.46;97554.88;5040418;28;20515;-61
2022/02/14 10:47:20;;;;;;;10.65;4.30;;;;;;;9.01;50.62;97608.47;5044464;28;20053;-61
2022/02/14 10:49:57;;;;;;;8.48;4.53;;;;;;;9.09;51.39;97583.50;5045182;28;20061;-61
2022/02/14 10:52:24;;;;;;;7.00;4.32;;;;;;;9.27;50.62;97561.94;5044574;28;20099;-57
2022/02/14 10:54:52;;;;;;;8.20;4.57;;;;;;;9.60;50.56;97592.94;5044189;28;20061;-60
2022/02/14 10:57:28;;;;;;;8.30;4.78;;;;;;;9.64;50.30;97571.72;5044269;28;20159;-56
2022/02/14 11:00:08;;;;;;;10.07;4.63;;;;;;;9.53;49.86;97587.19;5044372;28;20127;-57
2022/02/14 11:02:36;;;;;;;9.02;4.60;;;;;;;9.67;50.33;97590.41;5044140;28;20163;-61
2022/02/14 11:05:07;;;;;;;8.70;3.83;;;;;;;9.65;50.05;97567.81;5044215;28;20055;-59
2022/02/14 11:07:33;;;;;;;10.57;4.65;;;;;;;8.89;52.06;97578.09;5042867;28;20530;-59
2022/02/14 11:10:02;;;;;;;7.75;4.25;;;;;;;9.19;52.13;97573.91;5059562;28;20060;-62
2022/02/14 11:12:34;;;;;;;13.32;4.20;;;;;;;9.57;51.49;97577.06;5059644;28;20044;-57
2022/02/14 11:15:06;;;;;;;8.68;4.03;;;;;;;9.61;50.91;97561.34;5044315;28;20111;-57
2022/02/14 11:17:37;;;;;;;10.70;4.43;;;;;;;9.79;50.60;97565.44;5058996;28;20051;-56
2022/02/14 11:20:07;;;;;;;12.82;5.13;;;;;;;9.87;51.05;97560.91;5059339;28;20503;-62
2022/02/14 11:22:37;;;;;;;12.75;5.03;;;;;;;9.78;49.59;97494.69;5058568;28;20175;-61
2022/02/14 11:25:09;;;;;;;11.15;6.28;;;;;;;9.97;51.00;97547.38;5044067;28;20052;-62
2022/02/14 11:27:42;;;;;;;17.35;5.38;;;;;;;10.20;49.90;97534.56;5043890;28;20057;-61
2022/02/14 11:30:12;;;;;;;9.90;5.18;;;;;;;9.47;51.51;97533.28;5042535;28;20061;-61
2022/02/14 11:32:39;;;;;;;9.88;4.80;;;;;;;9.55;51.05;97545.38;5058002;28;20852;-57
2022/02/14 11:35:20;;;;;;;7.97;4.45;;;;;;;9.50;51.35;97516.00;5044073;28;20049;-60
2022/02/14 11:37:50;;;;;;;11.88;5.50;;;;;;;9.81;51.24;97531.88;5043323;28;20578;-62
2022/02/14 11:40:26;;;;;;;11.00;5.40;;;;;;;9.61;51.14;97472.84;5043615;28;20052;-61
2022/02/14 11:43:05;;;;;;;8.70;4.25;;;;;;;9.81;51.08;97527.16;5043328;28;20049;-62